Map Display - EGLL to EGCC
(last flight recorded 21-03-2019, 21:48 - Christopher Manlow)

Aircraft Weights    Units : Maximums
Passengers :   228  
Cargo : kg 21,350 kg
Suggested Fuel Load : kg 34,260 kg
 
     
 
Dry Operating : 62,100 kg    
Total Payload : 0 kg 21,350 kg
 
Take Off : 69,538 kg 113,850 kg
 
Expected Landing : 66,388 kg 89,800 kg

Christopher Manlow,  B752 ,  G-BIKG,  .

Route Distance Previous
Flights
Average
Duration
Average
Fuel Flow
Average
Fuel Use
EGLL - Heathrow, London
EGCC - Manchester
131 nm 14 00:42 4,288 kg/h 3,150 kg

Current weather :-
2019/03/22 12:06
TAF TAF EGLL 221054Z 2212/2318 22008KT 9999 BKN018 PROB30
TEMPO 2212/2215 BKN014
TEMPO 2302/2310 7000 -RADZ BKN012
BECMG 2305/2308 02010KT
2019/03/22 12:06
TAF EGCC 221102Z 2212/2318 22014KT 9999 FEW012 BKN030
TEMPO 2212/2218 24017G27KT
TEMPO 2215/2218 6000 RA BKN012
BECMG 2218/2221 28006KT
BECMG 2221/2224 CAVOK

Back to Virtual Airline